Chesapeake Coast — WDF9286 — position and weather

sailwx.info

Track history (hours):
 
Tides and Currents Weather Stations Pressure Air Temp Water Temp Dewpoint Dewpoint Depression Visibility Wind Speed Wind Dir Waves Ship Positions

Chesapeake Coast

Owner: Dann Marine Towing, LC, Chesapeake City, MD. More information available from US FCC via Universal Licensing System.

Last reported at 2017-Dec-16 09:56 UTC. Time now 2017-Dec-18 13:04 UTC.
Position N 40°60' W 073°53'.

Length 30 m; draft 3.8 m.

Type: Tug. MMSI: 366782000.

Date/timePositionNaut miles runAvg speedWind from/ knotsBaromVisibWave heightAir tempDewpointWater temp
2017-Dec-16 09:56N 40°60' W 073°53'3 6.8
2017-Dec-16 09:30N 40°57' W 073°54'3 6.8
2017-Dec-16 09:00N 40°54' W 073°55'3 6.4
2017-Dec-16 08:31N 40°51' W 073°57'3 5.9
2017-Dec-16 08:00N 40°48' W 073°59'3 5.5
2017-Dec-16 07:31N 40°46' W 074°00'3 5.3
2017-Dec-16 07:01N 40°43' W 074°01'3 5.4
2017-Dec-16 06:31N 40°41' W 074°02'3 5.6
2017-Dec-16 06:01N 40°38' W 074°03'3 5.8
2017-Dec-16 05:30N 40°35' W 074°02'0 0.3
2017-Dec-16 05:00N 40°35' W 074°02'1 1.9
2017-Dec-16 04:30N 40°34' W 074°02'2 5.0
2017-Dec-16 04:00N 40°32' W 074°01'41 5.7
2017-Dec-15 20:45N 39°51' W 073°57'3 6.9
2017-Dec-15 20:20N 39°48' W 073°58'2 6.9
2017-Dec-15 20:00N 39°46' W 073°58'3 6.7
2017-Dec-15 19:29N 39°42' W 074°00'4 6.5
2017-Dec-15 18:56N 39°39' W 074°02'3 6.6
2017-Dec-15 18:29N 39°37' W 074°04'4 6.7
2017-Dec-15 17:56N 39°33' W 074°06'59 5.1
2017-Dec-15 06:19N 38°57' W 075°07'2 7.1
2017-Dec-15 06:00N 38°59' W 075°08'2 4.9
2017-Dec-15 05:30N 39°02' W 075°10'2 3.8
2017-Dec-15 05:00N 39°03' W 075°10'4 8.8
2017-Dec-15 04:30N 39°07' W 075°13'4 7.5
2017-Dec-15 04:00N 39°10' W 075°16'12 7.7
2017-Dec-15 02:31N 39°20' W 075°25'9 5.9
2017-Dec-15 01:00N 39°26' W 075°32'3 5.3
2017-Dec-15 00:31N 39°29' W 075°34'30 5.0
2017-Dec-14 18:31N 39°54' W 075°12'0 0.0
2017-Dec-14 18:00N 39°54' W 075°12'0 1.0
2017-Dec-14 17:30N 39°54' W 075°12'0 0.0
2017-Dec-14 17:00N 39°54' W 075°12'0 0.0
2017-Dec-14 16:30N 39°54' W 075°12'0 0.0
2017-Dec-14 16:00N 39°54' W 075°12'0 0.0
2017-Dec-14 15:00N 39°54' W 075°12'0 0.0
2017-Dec-14 14:30N 39°54' W 075°12'2 3.7
2017-Dec-14 14:01N 39°52' W 075°13'0 0.1
2017-Dec-14 13:30N 39°52' W 075°13'3 6.7
2017-Dec-14 13:00N 39°53' W 075°09'3 6.5
2017-Dec-14 12:30N 39°56' W 075°08'3 6.5
2017-Dec-14 12:00N 39°59' W 075°05'1 1.7
2017-Dec-14 11:30N 39°59' W 075°04'4 8.5
2017-Dec-14 11:00N 39°56' W 075°08'4 7.8
2017-Dec-14 10:30N 39°53' W 075°12'5 9.7
2017-Dec-14 10:00N 39°51' W 075°17'4 8.7
2017-Dec-14 09:30N 39°49' W 075°23'2 4.3
2017-Dec-14 09:00N 39°48' W 075°25'0 0.0
2017-Dec-14 08:30N 39°48' W 075°25'1 1.7
2017-Dec-14 08:00N 39°49' W 075°24'4 8.3
2017-Dec-14 07:30N 39°51' W 075°20'5 9.2
2017-Dec-14 07:01N 39°52' W 075°14'3 6.8
2017-Dec-14 06:30N 39°53' W 075°09'0 0.0
2017-Dec-14 06:00N 39°53' W 075°09'0 0.1
2017-Dec-14 05:30N 39°53' W 075°09'0 0.0
2017-Dec-14 05:01N 39°53' W 075°09'0 0.0
2017-Dec-14 04:31N 39°53' W 075°09'0 0.0
2017-Dec-14 04:00N 39°53' W 075°09'0 0.0
2017-Dec-14 03:30N 39°53' W 075°09'0 0.0
2017-Dec-14 03:00N 39°53' W 075°09'0 0.0
2017-Dec-14 02:31N 39°53' W 075°09'0 0.0
2017-Dec-14 02:00N 39°53' W 075°09'0 0.0
2017-Dec-14 01:31N 39°53' W 075°09'0 0.0
2017-Dec-14 01:00N 39°53' W 075°09'0 0.0
2017-Dec-14 00:30N 39°53' W 075°09'0 0.0
2017-Dec-14 00:00N 39°53' W 075°09'0 0.0
2017-Dec-13 23:30N 39°53' W 075°09'0 0.0
2017-Dec-13 23:00N 39°53' W 075°09'0 0.0
2017-Dec-13 22:30N 39°53' W 075°09'0 0.0
2017-Dec-13 22:00N 39°53' W 075°09'0 0.0
2017-Dec-13 21:30N 39°53' W 075°09'0 0.0
2017-Dec-13 21:00N 39°53' W 075°09'0 0.0
2017-Dec-13 20:30N 39°53' W 075°09'0 0.0
2017-Dec-13 20:00N 39°53' W 075°09'0 0.0
2017-Dec-13 19:30N 39°53' W 075°09'0 0.0
2017-Dec-13 19:00N 39°53' W 075°09'0 0.0
2017-Dec-13 18:30N 39°53' W 075°09'0 0.0
2017-Dec-13 18:00N 39°53' W 075°09'0 0.0
2017-Dec-13 17:31N 39°53' W 075°09'0 0.0
2017-Dec-13 17:00N 39°53' W 075°09'0 0.0
2017-Dec-13 16:31N 39°53' W 075°09'0 0.0
2017-Dec-13 16:00N 39°53' W 075°09'0 0.0
2017-Dec-13 15:31N 39°53' W 075°09'0 0.0
2017-Dec-13 15:01N 39°53' W 075°09'0 0.0
2017-Dec-13 14:30N 39°53' W 075°09'0 0.0
2017-Dec-13 14:01N 39°53' W 075°09'0 0.0
2017-Dec-13 13:30N 39°53' W 075°09'0 0.0
2017-Dec-13 13:01N 39°53' W 075°09'0 0.0
2017-Dec-13 12:30N 39°53' W 075°09'0 0.0
2017-Dec-13 12:01N 39°53' W 075°09'0 0.0
2017-Dec-13 11:31N 39°53' W 075°09'0 0.0
2017-Dec-13 11:00N 39°53' W 075°09'0 0.6
2017-Dec-13 10:31N 39°53' W 075°10'2 4.3
2017-Dec-13 10:00N 39°54' W 075°12'0 0.1
2017-Dec-13 09:30N 39°54' W 075°12'1 1.4
2017-Dec-13 09:01N 39°54' W 075°12'0 0.0
2017-Dec-13 08:31N 39°54' W 075°12'0 0.0
2017-Dec-13 08:00N 39°54' W 075°12'0 0.0
2017-Dec-13 07:31N 39°54' W 075°12'0 0.0
2017-Dec-13 07:01N 39°54' W 075°12'0 0.0
2017-Dec-13 06:30N 39°54' W 075°12'0 0.0
2017-Dec-13 06:01N 39°54' W 075°12'0 0.0
2017-Dec-13 05:30N 39°54' W 075°12'0 0.0
2017-Dec-13 05:00N 39°54' W 075°12'0 0.0
2017-Dec-13 04:30N 39°54' W 075°12'0 0.0
2017-Dec-13 04:01N 39°54' W 075°12'0 0.0
2017-Dec-13 03:30N 39°54' W 075°12'0 0.0
2017-Dec-13 03:01N 39°54' W 075°12'0 0.0
2017-Dec-13 02:31N 39°54' W 075°12'0 0.0
2017-Dec-13 02:01N 39°54' W 075°12'0 0.0
2017-Dec-13 01:31N 39°54' W 075°12'0 0.0
2017-Dec-13 01:01N 39°54' W 075°12'0 0.0
2017-Dec-13 00:31N 39°54' W 075°12'0 0.0
2017-Dec-13 00:00N 39°54' W 075°12'0 0.0
2017-Dec-12 23:30N 39°54' W 075°12'0 0.0
2017-Dec-12 23:00N 39°54' W 075°12'0 0.0
2017-Dec-12 22:30N 39°54' W 075°12'0 0.0
2017-Dec-12 22:00N 39°54' W 075°12'0 0.0
2017-Dec-12 21:31N 39°54' W 075°12'0 0.0
2017-Dec-12 21:00N 39°54' W 075°12'0 0.0
2017-Dec-12 20:30N 39°54' W 075°12'0 0.0
2017-Dec-12 20:00N 39°54' W 075°12'0 0.0
2017-Dec-12 19:30N 39°54' W 075°12'0 0.0
2017-Dec-12 19:00N 39°54' W 075°12'0 0.0
2017-Dec-12 18:30N 39°54' W 075°12'0 0.0
2017-Dec-12 18:01N 39°54' W 075°12'0 0.0
2017-Dec-12 17:30N 39°54' W 075°12'0 0.1
2017-Dec-12 17:00N 39°54' W 075°12'0 0.0
2017-Dec-12 16:25N 39°54' W 075°12'0 0.0
2017-Dec-12 16:00N 39°54' W 075°12'0 0.0
2017-Dec-12 15:25N 39°54' W 075°12'0 0.0
2017-Dec-12 15:00N 39°54' W 075°12'0 0.0
2017-Dec-12 14:28N 39°54' W 075°12'0 0.0
2017-Dec-12 14:00N 39°54' W 075°12'0 0.0
2017-Dec-12 13:30N 39°54' W 075°12'0 0.0
2017-Dec-12 13:00N 39°54' W 075°12'2 4.1
2017-Dec-12 12:30N 39°52' W 075°13'611.2
2017-Dec-12 11:59N 39°51' W 075°21'610.9
2017-Dec-12 11:28N 39°48' W 075°27'4 8.7
2017-Dec-12 11:00N 39°44' W 075°30'612.5
2017-Dec-12 10:31N 39°39' W 075°33'5 9.9
2017-Dec-12 10:00N 39°34' W 075°34'510.6
2017-Dec-12 09:30N 39°33' W 075°41'813.8
2017-Dec-12 08:55N 39°32' W 075°51'4 8.6
2017-Dec-12 08:27N 39°30' W 075°55'911.1
2017-Dec-12 07:41N 39°24' W 076°03'312.1
2017-Dec-12 07:27N 39°23' W 076°06'13 9.8
2017-Dec-12 06:09N 39°12' W 076°16'410.7
2017-Dec-12 05:46N 39°09' W 076°19'2 9.3
2017-Dec-12 05:31N 39°10' W 076°22'5 9.6
2017-Dec-12 05:01N 39°11' W 076°28'5 9.4
2017-Dec-12 04:30N 39°14' W 076°33'1 2.4
2017-Dec-12 04:00N 39°15' W 076°34'2 3.8
2017-Dec-12 03:31N 39°13' W 076°32'510.5
2017-Dec-12 03:01N 39°11' W 076°26'611.7
2017-Dec-12 02:30N 39°09' W 076°19'5 9.3
2017-Dec-12 01:58N 39°13' W 076°15'511.1
2017-Dec-12 01:30N 39°18' W 076°13'611.1
2017-Dec-12 01:00N 39°22' W 076°08'611.2
2017-Dec-12 00:30N 39°25' W 076°02'510.8
2017-Dec-12 00:00N 39°29' W 075°57'510.7
2017-Dec-11 23:30N 39°32' W 075°52'4 8.6
2017-Dec-11 23:00N 39°32' W 075°46'510.1
2017-Dec-11 22:30N 39°33' W 075°40'5 9.6
2017-Dec-11 22:01N 39°34' W 075°34'4 7.3
2017-Dec-11 21:31N 39°37' W 075°35'4 8.6
2017-Dec-11 21:00N 39°41' W 075°31'5 9.3
2017-Dec-11 20:31N 39°45' W 075°29'5 9.1
2017-Dec-11 20:00N 39°48' W 075°25'4 9.0
2017-Dec-11 19:30N 39°51' W 075°20'510.2
2017-Dec-11 19:00N 39°52' W 075°14'2 4.7
2017-Dec-11 18:30N 39°53' W 075°12'0 0.1
2017-Dec-11 18:01N 39°53' W 075°12'0 0.0
2017-Dec-11 17:30N 39°53' W 075°12'0 0.0
2017-Dec-11 17:00N 39°53' W 075°12'0 0.9
2017-Dec-11 16:30N 39°54' W 075°12'0 0.3
2017-Dec-11 16:01N 39°54' W 075°12'1 1.3
2017-Dec-11 15:30N 39°54' W 075°12'0 0.0
2017-Dec-11 15:01N 39°54' W 075°12'0 0.0
2017-Dec-11 14:30N 39°54' W 075°12'0 0.0
2017-Dec-11 14:00N 39°54' W 075°12'0 0.0
2017-Dec-11 13:30N 39°54' W 075°12'0 0.0
2017-Dec-11 13:00N 39°54' W 075°12'0 0.0
2017-Dec-11 12:30N 39°54' W 075°12'0 0.0
2017-Dec-11 12:00N 39°54' W 075°12'0 0.0
2017-Dec-11 11:30N 39°54' W 075°12'0 0.0
2017-Dec-11 11:00N 39°54' W 075°12'0 0.0
2017-Dec-11 10:30N 39°54' W 075°12'0 0.0
2017-Dec-11 10:00N 39°54' W 075°12'0 0.0
2017-Dec-11 09:30N 39°54' W 075°12'0 0.0
2017-Dec-11 09:01N 39°54' W 075°12'0 0.0
2017-Dec-11 08:30N 39°54' W 075°12'0 0.0
2017-Dec-11 08:00N 39°54' W 075°12'0 0.0
2017-Dec-11 07:30N 39°54' W 075°12'0 0.0
2017-Dec-11 07:00N 39°54' W 075°12'0 0.5
2017-Dec-11 06:30N 39°54' W 075°12'0 0.6
2017-Dec-11 06:00N 39°54' W 075°12'3 6.5
2017-Dec-11 05:30N 39°51' W 075°15'4 8.2
2017-Dec-11 05:00N 39°51' W 075°20'3 6.9
2017-Dec-11 04:30N 39°49' W 075°24'4 7.4
2017-Dec-11 04:00N 39°47' W 075°28'2 4.6
2017-Dec-11 03:31N 39°45' W 075°30'2 4.3
2017-Dec-11 03:00N 39°43' W 075°31'0 0.0
2017-Dec-11 02:30N 39°43' W 075°31'0 0.0
2017-Dec-11 02:00N 39°43' W 075°31'0 0.0
2017-Dec-11 01:30N 39°43' W 075°31'0 0.0
2017-Dec-11 01:00N 39°43' W 075°31'0 0.0
2017-Dec-11 00:30N 39°43' W 075°31'0 0.0
2017-Dec-11 00:00N 39°43' W 075°31'0 0.0
2017-Dec-10 23:30N 39°43' W 075°31'0 0.0
2017-Dec-10 23:00N 39°43' W 075°31'0 0.0
2017-Dec-10 22:30N 39°43' W 075°31'0 0.0
2017-Dec-10 22:00N 39°43' W 075°31'1 2.3
2017-Dec-10 21:30N 39°44' W 075°30'4 7.7
2017-Dec-10 21:00N 39°47' W 075°27'4 7.5
2017-Dec-10 20:30N 39°49' W 075°23'3 6.5
2017-Dec-10 20:00N 39°51' W 075°20'4 8.4
2017-Dec-10 19:30N 39°51' W 075°14'5 9.0
2017-Dec-10 19:00N 39°53' W 075°09'1 2.7
2017-Dec-10 18:30N 39°54' W 075°08'0 0.0
2017-Dec-10 18:00N 39°54' W 075°08'0 0.0
2017-Dec-10 17:30N 39°54' W 075°08'0 0.0
2017-Dec-10 17:00N 39°54' W 075°08'0 0.0
2017-Dec-10 16:30N 39°54' W 075°08'0 0.0
2017-Dec-10 16:00N 39°54' W 075°08'0 0.0
2017-Dec-10 15:30N 39°54' W 075°08'0 0.0
2017-Dec-10 15:00N 39°54' W 075°08'0 0.0
2017-Dec-10 14:30N 39°54' W 075°08'0 0.0
2017-Dec-10 14:00N 39°54' W 075°08'0 0.0
2017-Dec-10 13:30N 39°54' W 075°08'0 0.0
2017-Dec-10 13:00N 39°54' W 075°08'0 0.0
2017-Dec-10 12:30N 39°54' W 075°08'0 0.0
2017-Dec-10 12:00N 39°54' W 075°08'0 0.0
2017-Dec-10 11:31N 39°54' W 075°08'0 0.0
2017-Dec-10 11:00N 39°54' W 075°08'1 1.6
2017-Dec-10 10:30N 39°55' W 075°08'3 6.4
2017-Dec-10 10:00N 39°58' W 075°07'2 4.9
2017-Dec-10 09:30N 39°59' W 075°04'0 0.0
2017-Dec-10 09:00N 39°59' W 075°04'0 0.0
2017-Dec-10 08:31N 39°59' W 075°04'0 0.0
2017-Dec-10 08:00N 39°59' W 075°04'0 0.0
2017-Dec-10 07:31N 39°59' W 075°04'0 0.0
2017-Dec-10 07:00N 39°59' W 075°04'0 0.0
2017-Dec-10 06:30N 39°59' W 075°04'0 0.0
2017-Dec-10 06:00N 39°59' W 075°04'0 0.0
2017-Dec-10 05:30N 39°59' W 075°04'0 0.0
2017-Dec-10 05:00N 39°59' W 075°04'0 0.0
2017-Dec-10 04:30N 39°59' W 075°04'0 0.0
2017-Dec-10 04:00N 39°59' W 075°04'0 0.0
2017-Dec-10 03:30N 39°59' W 075°04'0 0.0
2017-Dec-10 03:00N 39°59' W 075°04'2 4.2
2017-Dec-10 02:30N 39°58' W 075°07'3 6.0
2017-Dec-10 02:00N 39°55' W 075°08'3 6.1
2017-Dec-10 01:30N 39°53' W 075°10'2 3.4
2017-Dec-10 01:00N 39°54' W 075°12'1 1.3
2017-Dec-10 00:30N 39°54' W 075°12'0 0.0
2017-Dec-10 00:00N 39°54' W 075°12'0 0.0
2017-Dec-09 23:30N 39°54' W 075°12'0 0.0
2017-Dec-09 23:00N 39°54' W 075°12'0 0.0
2017-Dec-09 22:30N 39°54' W 075°12'0 0.0
2017-Dec-09 22:00N 39°54' W 075°12'0 0.0
2017-Dec-09 21:30N 39°54' W 075°12'0 0.0
2017-Dec-09 21:00N 39°54' W 075°12'0 0.0
2017-Dec-09 20:30N 39°54' W 075°12'0 0.0
2017-Dec-09 20:00N 39°54' W 075°12'0 0.0
2017-Dec-09 19:31N 39°54' W 075°12'0 0.0
2017-Dec-09 19:00N 39°54' W 075°12'0 0.0
2017-Dec-09 18:30N 39°54' W 075°12'0 0.0
2017-Dec-09 18:00N 39°54' W 075°12'0 0.0
2017-Dec-09 17:30N 39°54' W 075°12'1 1.5
2017-Dec-09 17:00N 39°54' W 075°13'0 0.2
2017-Dec-09 16:30N 39°54' W 075°12'2 3.2
2017-Dec-09 16:00N 39°52' W 075°12'0 0.0
2017-Dec-09 15:30N 39°52' W 075°12'0 0.1
2017-Dec-09 15:00N 39°52' W 075°13'0 0.0
2017-Dec-09 14:30N 39°52' W 075°13'0 0.1
2017-Dec-09 14:01N 39°52' W 075°13'0 0.0
2017-Dec-09 13:31N 39°52' W 075°13'0 0.0
2017-Dec-09 13:01N 39°52' W 075°12'0 0.1
2017-Dec-09 12:30N 39°52' W 075°12'0 0.0
2017-Dec-09 12:00N 39°52' W 075°12'0 0.2
2017-Dec-09 11:30N 39°52' W 075°12'0 0.1
2017-Dec-09 11:00N 39°52' W 075°12'0 0.0
2017-Dec-09 10:30N 39°52' W 075°12'0 0.0
2017-Dec-09 10:00N 39°52' W 075°12'0 0.0
2017-Dec-09 09:30N 39°52' W 075°12'0 0.0
2017-Dec-09 09:00N 39°52' W 075°12'0 0.0
2017-Dec-09 08:30N 39°52' W 075°12'0 0.0
2017-Dec-09 08:00N 39°52' W 075°12'0 0.0
2017-Dec-09 07:30N 39°52' W 075°12'0 0.0
2017-Dec-09 07:00N 39°52' W 075°12'0 0.1
2017-Dec-09 06:30N 39°52' W 075°12'0 0.2
2017-Dec-09 06:00N 39°52' W 075°12'0 0.1
2017-Dec-09 05:30N 39°52' W 075°12'0 0.0
2017-Dec-09 05:00N 39°52' W 075°12'0 0.1
2017-Dec-09 04:30N 39°52' W 075°12'0 0.0
2017-Dec-09 04:00N 39°52' W 075°12'0 0.0
2017-Dec-09 03:31N 39°52' W 075°12'0 0.0
2017-Dec-09 03:00N 39°52' W 075°12'0 0.0
2017-Dec-09 02:31N 39°52' W 075°12'0 0.0
2017-Dec-09 02:01N 39°52' W 075°12'0 0.0
2017-Dec-09 01:31N 39°52' W 075°13'0 0.0
2017-Dec-09 01:00N 39°52' W 075°13'0 0.1
2017-Dec-09 00:30N 39°52' W 075°12'0 0.1
2017-Dec-09 00:00N 39°52' W 075°12'0 0.1
2017-Dec-08 23:31N 39°52' W 075°12'0 0.2
2017-Dec-08 23:01N 39°52' W 075°12'0 0.0
2017-Dec-08 22:30N 39°52' W 075°12'0 0.1
2017-Dec-08 22:01N 39°52' W 075°12'0 0.0
2017-Dec-08 21:31N 39°52' W 075°12'0 0.0
2017-Dec-08 21:01N 39°52' W 075°12'0 0.0
2017-Dec-08 20:31N 39°52' W 075°12'0 0.0
2017-Dec-08 20:00N 39°52' W 075°12'0 0.0
2017-Dec-08 19:31N 39°52' W 075°12'0 0.0
2017-Dec-08 19:01N 39°52' W 075°12'0 0.0
2017-Dec-08 18:31N 39°52' W 075°12'0 0.0
2017-Dec-08 18:01N 39°52' W 075°12'0 0.0
2017-Dec-08 17:31N 39°52' W 075°12'0 0.3
2017-Dec-08 17:00N 39°52' W 075°12'0 0.1
2017-Dec-08 16:30N 39°52' W 075°13'0 0.2
2017-Dec-08 16:01N 39°52' W 075°12'2 3.1
2017-Dec-08 15:30N 39°54' W 075°12'1 1.4
2017-Dec-08 15:00N 39°53' W 075°12'1 1.9
2017-Dec-08 14:30N 39°52' W 075°12'0 0.1
2017-Dec-08 14:00N 39°52' W 075°12'0 0.1
2017-Dec-08 13:30N 39°52' W 075°12'0 0.0
2017-Dec-08 13:00N 39°52' W 075°12'0 0.0
2017-Dec-08 12:30N 39°52' W 075°12'0 0.0
2017-Dec-08 12:00N 39°52' W 075°12'0 0.1
2017-Dec-08 11:30N 39°52' W 075°12'0 0.1
2017-Dec-08 11:00N 39°52' W 075°12'0 0.1
2017-Dec-08 10:30N 39°52' W 075°12'0 0.2
2017-Dec-08 10:01N 39°52' W 075°12'0 0.1
2017-Dec-08 09:30N 39°52' W 075°12'0 0.0
2017-Dec-08 09:00N 39°52' W 075°12'0 0.0
2017-Dec-08 08:30N 39°52' W 075°12'0 0.0
2017-Dec-08 08:00N 39°52' W 075°12'0 0.0
2017-Dec-08 07:30N 39°52' W 075°12'0 0.0
2017-Dec-08 07:00N 39°52' W 075°12'0 0.0
2017-Dec-08 06:30N 39°52' W 075°12'0 0.0
2017-Dec-08 06:00N 39°52' W 075°12'0 0.1
2017-Dec-08 05:30N 39°52' W 075°12'0 0.0
2017-Dec-08 05:00N 39°52' W 075°12'0 0.1
2017-Dec-08 04:30N 39°52' W 075°12'0 0.1
2017-Dec-08 04:01N 39°52' W 075°12'0 0.1
2017-Dec-08 03:30N 39°52' W 075°12'0 0.3
2017-Dec-08 03:01N 39°52' W 075°13'0 0.0
2017-Dec-08 02:30N 39°52' W 075°13'0 0.0
2017-Dec-08 02:01N 39°52' W 075°13'0 0.0
2017-Dec-08 01:30N 39°52' W 075°13'0 0.0
2017-Dec-08 01:00N 39°52' W 075°13'0 0.0
2017-Dec-08 00:31N 39°52' W 075°13'0 0.0
2017-Dec-08 00:01N 39°52' W 075°13'0 0.1
2017-Dec-07 23:31N 39°52' W 075°13'0 0.2
2017-Dec-07 23:00N 39°52' W 075°12'0 0.1
2017-Dec-07 22:30N 39°52' W 075°12'0 0.0
2017-Dec-07 22:00N 39°52' W 075°12'0 0.1
2017-Dec-07 21:30N 39°52' W 075°12'0 0.0
2017-Dec-07 21:00N 39°52' W 075°12'0 0.0
2017-Dec-07 20:30N 39°52' W 075°12'0 0.0
2017-Dec-07 20:01N 39°52' W 075°12'0 0.1
2017-Dec-07 19:30N 39°52' W 075°12'0 0.0
2017-Dec-07 19:00N 39°52' W 075°12'0 0.0
2017-Dec-07 18:30N 39°52' W 075°12'0 0.1
2017-Dec-07 18:01N 39°52' W 075°12'0 0.1
2017-Dec-07 17:30N 39°52' W 075°12'0 0.1
2017-Dec-07 17:00N 39°52' W 075°12'0 0.1
2017-Dec-07 16:30N 39°52' W 075°12'0 0.0
2017-Dec-07 16:00N 39°52' W 075°12'0 0.1
2017-Dec-07 15:30N 39°52' W 075°12'0 0.1
2017-Dec-07 15:00N 39°52' W 075°12'0 0.0
2017-Dec-07 14:30N 39°52' W 075°12'0 0.1
2017-Dec-07 14:00N 39°52' W 075°12'0 0.0
2017-Dec-07 13:29N 39°52' W 075°12'0 0.1
2017-Dec-07 13:00N 39°52' W 075°12'0 0.0
2017-Dec-07 12:30N 39°52' W 075°12'0 0.0
2017-Dec-07 12:00N 39°52' W 075°12'0 0.1
2017-Dec-07 11:30N 39°52' W 075°12'0 0.1
2017-Dec-07 10:59N 39°52' W 075°12'0 0.1
2017-Dec-07 10:30N 39°52' W 075°12'0 0.0
2017-Dec-07 10:00N 39°52' W 075°12'0 0.0
2017-Dec-07 09:30N 39°52' W 075°12'0 0.0
2017-Dec-07 09:00N 39°52' W 075°12'0 0.0
2017-Dec-07 08:30N 39°52' W 075°12'0 0.0
2017-Dec-07 08:00N 39°52' W 075°12'0 0.0
2017-Dec-07 07:30N 39°52' W 075°12'0 0.0
2017-Dec-07 07:00N 39°52' W 075°12'0 0.0
2017-Dec-07 06:30N 39°52' W 075°12'0 0.0
2017-Dec-07 06:00N 39°52' W 075°12'0 0.1
2017-Dec-07 05:30N 39°52' W 075°12'0 0.0
2017-Dec-07 04:59N 39°52' W 075°12'0 0.3
2017-Dec-07 04:29N 39°52' W 075°13'0 0.1
2017-Dec-07 04:00N 39°52' W 075°13'0 0.0
2017-Dec-07 03:30N 39°52' W 075°13'0 0.0
2017-Dec-07 03:00N 39°52' W 075°13'0 0.1
2017-Dec-07 02:30N 39°52' W 075°13'0 0.0
2017-Dec-07 02:00N 39°52' W 075°13'0 0.0
2017-Dec-07 01:30N 39°52' W 075°13'0 0.0
2017-Dec-07 01:00N 39°52' W 075°13'0 0.0
2017-Dec-07 00:30N 39°52' W 075°13'0 0.3
2017-Dec-07 00:00N 39°52' W 075°12'0 0.1
2017-Dec-06 23:30N 39°52' W 075°12'0 0.0
2017-Dec-06 23:01N 39°52' W 075°12'0 0.1
2017-Dec-06 22:30N 39°52' W 075°12'0 0.1
2017-Dec-06 22:01N 39°52' W 075°12'0 0.0
2017-Dec-06 21:30N 39°52' W 075°12'0 0.0
2017-Dec-06 21:00N 39°52' W 075°12'  
Track history (hours):
 
Tides and Currents Weather Stations Pressure Air Temp Water Temp Dewpoint Dewpoint Depression Visibility Wind Speed Wind Dir Waves Ship Positions

Chesapeake Coast

Owner: Dann Marine Towing, LC, Chesapeake City, MD. More information available from US FCC via Universal Licensing System.

Last reported at 2017-Dec-16 09:56 UTC. Time now 2017-Dec-18 13:04 UTC.
Position N 40°60' W 073°53'.

Length 30 m; draft 3.8 m.

Type: Tug. MMSI: 366782000.

Date/timePositionNaut miles runAvg speedWind from/ knotsBaromVisibWave heightAir tempDewpointWater temp
2017-Dec-16 09:56N 40°60' W 073°53'3 6.8
2017-Dec-16 09:30N 40°57' W 073°54'3 6.8
2017-Dec-16 09:00N 40°54' W 073°55'3 6.4
2017-Dec-16 08:31N 40°51' W 073°57'3 5.9
2017-Dec-16 08:00N 40°48' W 073°59'3 5.5
2017-Dec-16 07:31N 40°46' W 074°00'3 5.3
2017-Dec-16 07:01N 40°43' W 074°01'3 5.4
2017-Dec-16 06:31N 40°41' W 074°02'3 5.6
2017-Dec-16 06:01N 40°38' W 074°03'3 5.8
2017-Dec-16 05:30N 40°35' W 074°02'0 0.3
2017-Dec-16 05:00N 40°35' W 074°02'1 1.9
2017-Dec-16 04:30N 40°34' W 074°02'2 5.0
2017-Dec-16 04:00N 40°32' W 074°01'41 5.7
2017-Dec-15 20:45N 39°51' W 073°57'3 6.9
2017-Dec-15 20:20N 39°48' W 073°58'2 6.9
2017-Dec-15 20:00N 39°46' W 073°58'3 6.7
2017-Dec-15 19:29N 39°42' W 074°00'4 6.5
2017-Dec-15 18:56N 39°39' W 074°02'3 6.6
2017-Dec-15 18:29N 39°37' W 074°04'4 6.7
2017-Dec-15 17:56N 39°33' W 074°06'59 5.1
2017-Dec-15 06:19N 38°57' W 075°07'2 7.1
2017-Dec-15 06:00N 38°59' W 075°08'2 4.9
2017-Dec-15 05:30N 39°02' W 075°10'2 3.8
2017-Dec-15 05:00N 39°03' W 075°10'4 8.8
2017-Dec-15 04:30N 39°07' W 075°13'4 7.5
2017-Dec-15 04:00N 39°10' W 075°16'12 7.7
2017-Dec-15 02:31N 39°20' W 075°25'9 5.9
2017-Dec-15 01:00N 39°26' W 075°32'3 5.3
2017-Dec-15 00:31N 39°29' W 075°34'30 5.0
2017-Dec-14 18:31N 39°54' W 075°12'0 0.0
2017-Dec-14 18:00N 39°54' W 075°12'0 1.0
2017-Dec-14 17:30N 39°54' W 075°12'0 0.0
2017-Dec-14 17:00N 39°54' W 075°12'0 0.0
2017-Dec-14 16:30N 39°54' W 075°12'0 0.0
2017-Dec-14 16:00N 39°54' W 075°12'0 0.0
2017-Dec-14 15:00N 39°54' W 075°12'0 0.0
2017-Dec-14 14:30N 39°54' W 075°12'2 3.7
2017-Dec-14 14:01N 39°52' W 075°13'0 0.1
2017-Dec-14 13:30N 39°52' W 075°13'3 6.7
2017-Dec-14 13:00N 39°53' W 075°09'3 6.5
2017-Dec-14 12:30N 39°56' W 075°08'3 6.5
2017-Dec-14 12:00N 39°59' W 075°05'1 1.7
2017-Dec-14 11:30N 39°59' W 075°04'4 8.5
2017-Dec-14 11:00N 39°56' W 075°08'4 7.8
2017-Dec-14 10:30N 39°53' W 075°12'5 9.7
2017-Dec-14 10:00N 39°51' W 075°17'4 8.7
2017-Dec-14 09:30N 39°49' W 075°23'2 4.3
2017-Dec-14 09:00N 39°48' W 075°25'0 0.0
2017-Dec-14 08:30N 39°48' W 075°25'1 1.7
2017-Dec-14 08:00N 39°49' W 075°24'4 8.3
2017-Dec-14 07:30N 39°51' W 075°20'5 9.2
2017-Dec-14 07:01N 39°52' W 075°14'3 6.8
2017-Dec-14 06:30N 39°53' W 075°09'0 0.0
2017-Dec-14 06:00N 39°53' W 075°09'0 0.1
2017-Dec-14 05:30N 39°53' W 075°09'0 0.0
2017-Dec-14 05:01N 39°53' W 075°09'0 0.0
2017-Dec-14 04:31N 39°53' W 075°09'0 0.0
2017-Dec-14 04:00N 39°53' W 075°09'0 0.0
2017-Dec-14 03:30N 39°53' W 075°09'0 0.0
2017-Dec-14 03:00N 39°53' W 075°09'0 0.0
2017-Dec-14 02:31N 39°53' W 075°09'0 0.0
2017-Dec-14 02:00N 39°53' W 075°09'0 0.0
2017-Dec-14 01:31N 39°53' W 075°09'0 0.0
2017-Dec-14 01:00N 39°53' W 075°09'0 0.0
2017-Dec-14 00:30N 39°53' W 075°09'0 0.0
2017-Dec-14 00:00N 39°53' W 075°09'0 0.0
2017-Dec-13 23:30N 39°53' W 075°09'0 0.0
2017-Dec-13 23:00N 39°53' W 075°09'0 0.0
2017-Dec-13 22:30N 39°53' W 075°09'0 0.0
2017-Dec-13 22:00N 39°53' W 075°09'0 0.0
2017-Dec-13 21:30N 39°53' W 075°09'0 0.0
2017-Dec-13 21:00N 39°53' W 075°09'0 0.0
2017-Dec-13 20:30N 39°53' W 075°09'0 0.0
2017-Dec-13 20:00N 39°53' W 075°09'0 0.0
2017-Dec-13 19:30N 39°53' W 075°09'0 0.0
2017-Dec-13 19:00N 39°53' W 075°09'0 0.0
2017-Dec-13 18:30N 39°53' W 075°09'0 0.0
2017-Dec-13 18:00N 39°53' W 075°09'0 0.0
2017-Dec-13 17:31N 39°53' W 075°09'0 0.0
2017-Dec-13 17:00N 39°53' W 075°09'0 0.0
2017-Dec-13 16:31N 39°53' W 075°09'0 0.0
2017-Dec-13 16:00N 39°53' W 075°09'0 0.0
2017-Dec-13 15:31N 39°53' W 075°09'0 0.0
2017-Dec-13 15:01N 39°53' W 075°09'0 0.0
2017-Dec-13 14:30N 39°53' W 075°09'0 0.0
2017-Dec-13 14:01N 39°53' W 075°09'0 0.0
2017-Dec-13 13:30N 39°53' W 075°09'0 0.0
2017-Dec-13 13:01N 39°53' W 075°09'0 0.0
2017-Dec-13 12:30N 39°53' W 075°09'0 0.0
2017-Dec-13 12:01N 39°53' W 075°09'0 0.0
2017-Dec-13 11:31N 39°53' W 075°09'0 0.0
2017-Dec-13 11:00N 39°53' W 075°09'0 0.6
2017-Dec-13 10:31N 39°53' W 075°10'2 4.3
2017-Dec-13 10:00N 39°54' W 075°12'0 0.1
2017-Dec-13 09:30N 39°54' W 075°12'1 1.4
2017-Dec-13 09:01N 39°54' W 075°12'0 0.0
2017-Dec-13 08:31N 39°54' W 075°12'0 0.0
2017-Dec-13 08:00N 39°54' W 075°12'0 0.0
2017-Dec-13 07:31N 39°54' W 075°12'0 0.0
2017-Dec-13 07:01N 39°54' W 075°12'0 0.0
2017-Dec-13 06:30N 39°54' W 075°12'0 0.0
2017-Dec-13 06:01N 39°54' W 075°12'0 0.0
2017-Dec-13 05:30N 39°54' W 075°12'0 0.0
2017-Dec-13 05:00N 39°54' W 075°12'0 0.0
2017-Dec-13 04:30N 39°54' W 075°12'0 0.0
2017-Dec-13 04:01N 39°54' W 075°12'0 0.0
2017-Dec-13 03:30N 39°54' W 075°12'0 0.0
2017-Dec-13 03:01N 39°54' W 075°12'0 0.0
2017-Dec-13 02:31N 39°54' W 075°12'0 0.0
2017-Dec-13 02:01N 39°54' W 075°12'0 0.0
2017-Dec-13 01:31N 39°54' W 075°12'0 0.0
2017-Dec-13 01:01N 39°54' W 075°12'0 0.0
2017-Dec-13 00:31N 39°54' W 075°12'0 0.0
2017-Dec-13 00:00N 39°54' W 075°12'0 0.0
2017-Dec-12 23:30N 39°54' W 075°12'0 0.0
2017-Dec-12 23:00N 39°54' W 075°12'0 0.0
2017-Dec-12 22:30N 39°54' W 075°12'0 0.0
2017-Dec-12 22:00N 39°54' W 075°12'0 0.0
2017-Dec-12 21:31N 39°54' W 075°12'0 0.0
2017-Dec-12 21:00N 39°54' W 075°12'0 0.0
2017-Dec-12 20:30N 39°54' W 075°12'0 0.0
2017-Dec-12 20:00N 39°54' W 075°12'0 0.0
2017-Dec-12 19:30N 39°54' W 075°12'0 0.0
2017-Dec-12 19:00N 39°54' W 075°12'0 0.0
2017-Dec-12 18:30N 39°54' W 075°12'0 0.0
2017-Dec-12 18:01N 39°54' W 075°12'0 0.0
2017-Dec-12 17:30N 39°54' W 075°12'0 0.1
2017-Dec-12 17:00N 39°54' W 075°12'0 0.0
2017-Dec-12 16:25N 39°54' W 075°12'0 0.0
2017-Dec-12 16:00N 39°54' W 075°12'0 0.0
2017-Dec-12 15:25N 39°54' W 075°12'0 0.0
2017-Dec-12 15:00N 39°54' W 075°12'0 0.0
2017-Dec-12 14:28N 39°54' W 075°12'0 0.0
2017-Dec-12 14:00N 39°54' W 075°12'0 0.0
2017-Dec-12 13:30N 39°54' W 075°12'0 0.0
2017-Dec-12 13:00N 39°54' W 075°12'2 4.1
2017-Dec-12 12:30N 39°52' W 075°13'611.2
2017-Dec-12 11:59N 39°51' W 075°21'610.9
2017-Dec-12 11:28N 39°48' W 075°27'4 8.7
2017-Dec-12 11:00N 39°44' W 075°30'612.5
2017-Dec-12 10:31N 39°39' W 075°33'5 9.9
2017-Dec-12 10:00N 39°34' W 075°34'510.6
2017-Dec-12 09:30N 39°33' W 075°41'813.8
2017-Dec-12 08:55N 39°32' W 075°51'4 8.6
2017-Dec-12 08:27N 39°30' W 075°55'911.1
2017-Dec-12 07:41N 39°24' W 076°03'312.1
2017-Dec-12 07:27N 39°23' W 076°06'13 9.8
2017-Dec-12 06:09N 39°12' W 076°16'410.7
2017-Dec-12 05:46N 39°09' W 076°19'2 9.3
2017-Dec-12 05:31N 39°10' W 076°22'5 9.6
2017-Dec-12 05:01N 39°11' W 076°28'5 9.4
2017-Dec-12 04:30N 39°14' W 076°33'1 2.4
2017-Dec-12 04:00N 39°15' W 076°34'2 3.8
2017-Dec-12 03:31N 39°13' W 076°32'510.5
2017-Dec-12 03:01N 39°11' W 076°26'611.7
2017-Dec-12 02:30N 39°09' W 076°19'5 9.3
2017-Dec-12 01:58N 39°13' W 076°15'511.1
2017-Dec-12 01:30N 39°18' W 076°13'611.1
2017-Dec-12 01:00N 39°22' W 076°08'611.2
2017-Dec-12 00:30N 39°25' W 076°02'510.8
2017-Dec-12 00:00N 39°29' W 075°57'510.7
2017-Dec-11 23:30N 39°32' W 075°52'4 8.6
2017-Dec-11 23:00N 39°32' W 075°46'510.1
2017-Dec-11 22:30N 39°33' W 075°40'5 9.6
2017-Dec-11 22:01N 39°34' W 075°34'4 7.3
2017-Dec-11 21:31N 39°37' W 075°35'4 8.6
2017-Dec-11 21:00N 39°41' W 075°31'5 9.3
2017-Dec-11 20:31N 39°45' W 075°29'5 9.1
2017-Dec-11 20:00N 39°48' W 075°25'4 9.0
2017-Dec-11 19:30N 39°51' W 075°20'510.2
2017-Dec-11 19:00N 39°52' W 075°14'2 4.7
2017-Dec-11 18:30N 39°53' W 075°12'0 0.1
2017-Dec-11 18:01N 39°53' W 075°12'0 0.0
2017-Dec-11 17:30N 39°53' W 075°12'0 0.0
2017-Dec-11 17:00N 39°53' W 075°12'0 0.9
2017-Dec-11 16:30N 39°54' W 075°12'0 0.3
2017-Dec-11 16:01N 39°54' W 075°12'1 1.3
2017-Dec-11 15:30N 39°54' W 075°12'0 0.0
2017-Dec-11 15:01N 39°54' W 075°12'0 0.0
2017-Dec-11 14:30N 39°54' W 075°12'0 0.0
2017-Dec-11 14:00N 39°54' W 075°12'0 0.0
2017-Dec-11 13:30N 39°54' W 075°12'0 0.0
2017-Dec-11 13:00N 39°54' W 075°12'0 0.0
2017-Dec-11 12:30N 39°54' W 075°12'0 0.0
2017-Dec-11 12:00N 39°54' W 075°12'0 0.0
2017-Dec-11 11:30N 39°54' W 075°12'0 0.0
2017-Dec-11 11:00N 39°54' W 075°12'0 0.0
2017-Dec-11 10:30N 39°54' W 075°12'0 0.0
2017-Dec-11 10:00N 39°54' W 075°12'0 0.0
2017-Dec-11 09:30N 39°54' W 075°12'0 0.0
2017-Dec-11 09:01N 39°54' W 075°12'0 0.0
2017-Dec-11 08:30N 39°54' W 075°12'0 0.0
2017-Dec-11 08:00N 39°54' W 075°12'0 0.0
2017-Dec-11 07:30N 39°54' W 075°12'0 0.0
2017-Dec-11 07:00N 39°54' W 075°12'0 0.5
2017-Dec-11 06:30N 39°54' W 075°12'0 0.6
2017-Dec-11 06:00N 39°54' W 075°12'3 6.5
2017-Dec-11 05:30N 39°51' W 075°15'4 8.2
2017-Dec-11 05:00N 39°51' W 075°20'3 6.9
2017-Dec-11 04:30N 39°49' W 075°24'4 7.4
2017-Dec-11 04:00N 39°47' W 075°28'2 4.6
2017-Dec-11 03:31N 39°45' W 075°30'2 4.3
2017-Dec-11 03:00N 39°43' W 075°31'0 0.0
2017-Dec-11 02:30N 39°43' W 075°31'0 0.0
2017-Dec-11 02:00N 39°43' W 075°31'0 0.0
2017-Dec-11 01:30N 39°43' W 075°31'0 0.0
2017-Dec-11 01:00N 39°43' W 075°31'0 0.0
2017-Dec-11 00:30N 39°43' W 075°31'0 0.0
2017-Dec-11 00:00N 39°43' W 075°31'0 0.0
2017-Dec-10 23:30N 39°43' W 075°31'0 0.0
2017-Dec-10 23:00N 39°43' W 075°31'0 0.0
2017-Dec-10 22:30N 39°43' W 075°31'0 0.0
2017-Dec-10 22:00N 39°43' W 075°31'1 2.3
2017-Dec-10 21:30N 39°44' W 075°30'4 7.7
2017-Dec-10 21:00N 39°47' W 075°27'4 7.5
2017-Dec-10 20:30N 39°49' W 075°23'3 6.5
2017-Dec-10 20:00N 39°51' W 075°20'4 8.4
2017-Dec-10 19:30N 39°51' W 075°14'5 9.0
2017-Dec-10 19:00N 39°53' W 075°09'1 2.7
2017-Dec-10 18:30N 39°54' W 075°08'0 0.0
2017-Dec-10 18:00N 39°54' W 075°08'0 0.0
2017-Dec-10 17:30N 39°54' W 075°08'0 0.0
2017-Dec-10 17:00N 39°54' W 075°08'0 0.0
2017-Dec-10 16:30N 39°54' W 075°08'0 0.0
2017-Dec-10 16:00N 39°54' W 075°08'0 0.0
2017-Dec-10 15:30N 39°54' W 075°08'0 0.0
2017-Dec-10 15:00N 39°54' W 075°08'0 0.0
2017-Dec-10 14:30N 39°54' W 075°08'0 0.0
2017-Dec-10 14:00N 39°54' W 075°08'0 0.0
2017-Dec-10 13:30N 39°54' W 075°08'0 0.0
2017-Dec-10 13:00N 39°54' W 075°08'0 0.0
2017-Dec-10 12:30N 39°54' W 075°08'0 0.0
2017-Dec-10 12:00N 39°54' W 075°08'0 0.0
2017-Dec-10 11:31N 39°54' W 075°08'0 0.0
2017-Dec-10 11:00N 39°54' W 075°08'1 1.6
2017-Dec-10 10:30N 39°55' W 075°08'3 6.4
2017-Dec-10 10:00N 39°58' W 075°07'2 4.9
2017-Dec-10 09:30N 39°59' W 075°04'0 0.0
2017-Dec-10 09:00N 39°59' W 075°04'0 0.0
2017-Dec-10 08:31N 39°59' W 075°04'0 0.0
2017-Dec-10 08:00N 39°59' W 075°04'0 0.0
2017-Dec-10 07:31N 39°59' W 075°04'0 0.0
2017-Dec-10 07:00N 39°59' W 075°04'0 0.0
2017-Dec-10 06:30N 39°59' W 075°04'0 0.0
2017-Dec-10 06:00N 39°59' W 075°04'0 0.0
2017-Dec-10 05:30N 39°59' W 075°04'0 0.0
2017-Dec-10 05:00N 39°59' W 075°04'0 0.0
2017-Dec-10 04:30N 39°59' W 075°04'0 0.0
2017-Dec-10 04:00N 39°59' W 075°04'0 0.0
2017-Dec-10 03:30N 39°59' W 075°04'0 0.0
2017-Dec-10 03:00N 39°59' W 075°04'2 4.2
2017-Dec-10 02:30N 39°58' W 075°07'3 6.0
2017-Dec-10 02:00N 39°55' W 075°08'3 6.1
2017-Dec-10 01:30N 39°53' W 075°10'2 3.4
2017-Dec-10 01:00N 39°54' W 075°12'1 1.3
2017-Dec-10 00:30N 39°54' W 075°12'0 0.0
2017-Dec-10 00:00N 39°54' W 075°12'0 0.0
2017-Dec-09 23:30N 39°54' W 075°12'0 0.0
2017-Dec-09 23:00N 39°54' W 075°12'0 0.0
2017-Dec-09 22:30N 39°54' W 075°12'0 0.0
2017-Dec-09 22:00N 39°54' W 075°12'0 0.0
2017-Dec-09 21:30N 39°54' W 075°12'0 0.0
2017-Dec-09 21:00N 39°54' W 075°12'0 0.0
2017-Dec-09 20:30N 39°54' W 075°12'0 0.0
2017-Dec-09 20:00N 39°54' W 075°12'0 0.0
2017-Dec-09 19:31N 39°54' W 075°12'0 0.0
2017-Dec-09 19:00N 39°54' W 075°12'0 0.0
2017-Dec-09 18:30N 39°54' W 075°12'0 0.0
2017-Dec-09 18:00N 39°54' W 075°12'0 0.0
2017-Dec-09 17:30N 39°54' W 075°12'1 1.5
2017-Dec-09 17:00N 39°54' W 075°13'0 0.2
2017-Dec-09 16:30N 39°54' W 075°12'2 3.2
2017-Dec-09 16:00N 39°52' W 075°12'0 0.0
2017-Dec-09 15:30N 39°52' W 075°12'0 0.1
2017-Dec-09 15:00N 39°52' W 075°13'0 0.0
2017-Dec-09 14:30N 39°52' W 075°13'0 0.1
2017-Dec-09 14:01N 39°52' W 075°13'0 0.0
2017-Dec-09 13:31N 39°52' W 075°13'0 0.0
2017-Dec-09 13:01N 39°52' W 075°12'0 0.1
2017-Dec-09 12:30N 39°52' W 075°12'0 0.0
2017-Dec-09 12:00N 39°52' W 075°12'0 0.2
2017-Dec-09 11:30N 39°52' W 075°12'0 0.1
2017-Dec-09 11:00N 39°52' W 075°12'0 0.0
2017-Dec-09 10:30N 39°52' W 075°12'0 0.0
2017-Dec-09 10:00N 39°52' W 075°12'0 0.0
2017-Dec-09 09:30N 39°52' W 075°12'0 0.0
2017-Dec-09 09:00N 39°52' W 075°12'0 0.0
2017-Dec-09 08:30N 39°52' W 075°12'0 0.0
2017-Dec-09 08:00N 39°52' W 075°12'0 0.0
2017-Dec-09 07:30N 39°52' W 075°12'0 0.0
2017-Dec-09 07:00N 39°52' W 075°12'0 0.1
2017-Dec-09 06:30N 39°52' W 075°12'0 0.2
2017-Dec-09 06:00N 39°52' W 075°12'0 0.1
2017-Dec-09 05:30N 39°52' W 075°12'0 0.0
2017-Dec-09 05:00N 39°52' W 075°12'0 0.1
2017-Dec-09 04:30N 39°52' W 075°12'0 0.0
2017-Dec-09 04:00N 39°52' W 075°12'0 0.0
2017-Dec-09 03:31N 39°52' W 075°12'0 0.0
2017-Dec-09 03:00N 39°52' W 075°12'0 0.0
2017-Dec-09 02:31N 39°52' W 075°12'0 0.0
2017-Dec-09 02:01N 39°52' W 075°12'0 0.0
2017-Dec-09 01:31N 39°52' W 075°13'0 0.0
2017-Dec-09 01:00N 39°52' W 075°13'0 0.1
2017-Dec-09 00:30N 39°52' W 075°12'0 0.1
2017-Dec-09 00:00N 39°52' W 075°12'0 0.1
2017-Dec-08 23:31N 39°52' W 075°12'0 0.2
2017-Dec-08 23:01N 39°52' W 075°12'0 0.0
2017-Dec-08 22:30N 39°52' W 075°12'0 0.1
2017-Dec-08 22:01N 39°52' W 075°12'0 0.0
2017-Dec-08 21:31N 39°52' W 075°12'0 0.0
2017-Dec-08 21:01N 39°52' W 075°12'0 0.0
2017-Dec-08 20:31N 39°52' W 075°12'0 0.0
2017-Dec-08 20:00N 39°52' W 075°12'0 0.0
2017-Dec-08 19:31N 39°52' W 075°12'0 0.0
2017-Dec-08 19:01N 39°52' W 075°12'0 0.0
2017-Dec-08 18:31N 39°52' W 075°12'0 0.0
2017-Dec-08 18:01N 39°52' W 075°12'0 0.0
2017-Dec-08 17:31N 39°52' W 075°12'0 0.3
2017-Dec-08 17:00N 39°52' W 075°12'0 0.1
2017-Dec-08 16:30N 39°52' W 075°13'0 0.2
2017-Dec-08 16:01N 39°52' W 075°12'2 3.1
2017-Dec-08 15:30N 39°54' W 075°12'1 1.4
2017-Dec-08 15:00N 39°53' W 075°12'1 1.9
2017-Dec-08 14:30N 39°52' W 075°12'0 0.1
2017-Dec-08 14:00N 39°52' W 075°12'0 0.1
2017-Dec-08 13:30N 39°52' W 075°12'0 0.0
2017-Dec-08 13:00N 39°52' W 075°12'0 0.0
2017-Dec-08 12:30N 39°52' W 075°12'0 0.0
2017-Dec-08 12:00N 39°52' W 075°12'0 0.1
2017-Dec-08 11:30N 39°52' W 075°12'0 0.1
2017-Dec-08 11:00N 39°52' W 075°12'0 0.1
2017-Dec-08 10:30N 39°52' W 075°12'0 0.2
2017-Dec-08 10:01N 39°52' W 075°12'0 0.1
2017-Dec-08 09:30N 39°52' W 075°12'0 0.0
2017-Dec-08 09:00N 39°52' W 075°12'0 0.0
2017-Dec-08 08:30N 39°52' W 075°12'0 0.0
2017-Dec-08 08:00N 39°52' W 075°12'0 0.0
2017-Dec-08 07:30N 39°52' W 075°12'0 0.0
2017-Dec-08 07:00N 39°52' W 075°12'0 0.0
2017-Dec-08 06:30N 39°52' W 075°12'0 0.0
2017-Dec-08 06:00N 39°52' W 075°12'0 0.1
2017-Dec-08 05:30N 39°52' W 075°12'0 0.0
2017-Dec-08 05:00N 39°52' W 075°12'0 0.1
2017-Dec-08 04:30N 39°52' W 075°12'0 0.1
2017-Dec-08 04:01N 39°52' W 075°12'0 0.1
2017-Dec-08 03:30N 39°52' W 075°12'0 0.3
2017-Dec-08 03:01N 39°52' W 075°13'0 0.0
2017-Dec-08 02:30N 39°52' W 075°13'0 0.0
2017-Dec-08 02:01N 39°52' W 075°13'0 0.0
2017-Dec-08 01:30N 39°52' W 075°13'0 0.0
2017-Dec-08 01:00N 39°52' W 075°13'0 0.0
2017-Dec-08 00:31N 39°52' W 075°13'0 0.0
2017-Dec-08 00:01N 39°52' W 075°13'0 0.1
2017-Dec-07 23:31N 39°52' W 075°13'0 0.2
2017-Dec-07 23:00N 39°52' W 075°12'0 0.1
2017-Dec-07 22:30N 39°52' W 075°12'0 0.0
2017-Dec-07 22:00N 39°52' W 075°12'0 0.1
2017-Dec-07 21:30N 39°52' W 075°12'0 0.0
2017-Dec-07 21:00N 39°52' W 075°12'0 0.0
2017-Dec-07 20:30N 39°52' W 075°12'0 0.0
2017-Dec-07 20:01N 39°52' W 075°12'0 0.1
2017-Dec-07 19:30N 39°52' W 075°12'0 0.0
2017-Dec-07 19:00N 39°52' W 075°12'0 0.0
2017-Dec-07 18:30N 39°52' W 075°12'0 0.1
2017-Dec-07 18:01N 39°52' W 075°12'0 0.1
2017-Dec-07 17:30N 39°52' W 075°12'0 0.1
2017-Dec-07 17:00N 39°52' W 075°12'0 0.1
2017-Dec-07 16:30N 39°52' W 075°12'0 0.0
2017-Dec-07 16:00N 39°52' W 075°12'0 0.1
2017-Dec-07 15:30N 39°52' W 075°12'0 0.1
2017-Dec-07 15:00N 39°52' W 075°12'0 0.0
2017-Dec-07 14:30N 39°52' W 075°12'0 0.1
2017-Dec-07 14:00N 39°52' W 075°12'0 0.0
2017-Dec-07 13:29N 39°52' W 075°12'0 0.1
2017-Dec-07 13:00N 39°52' W 075°12'0 0.0
2017-Dec-07 12:30N 39°52' W 075°12'0 0.0
2017-Dec-07 12:00N 39°52' W 075°12'0 0.1
2017-Dec-07 11:30N 39°52' W 075°12'0 0.1
2017-Dec-07 10:59N 39°52' W 075°12'0 0.1
2017-Dec-07 10:30N 39°52' W 075°12'0 0.0
2017-Dec-07 10:00N 39°52' W 075°12'0 0.0
2017-Dec-07 09:30N 39°52' W 075°12'0 0.0
2017-Dec-07 09:00N 39°52' W 075°12'0 0.0
2017-Dec-07 08:30N 39°52' W 075°12'0 0.0
2017-Dec-07 08:00N 39°52' W 075°12'0 0.0
2017-Dec-07 07:30N 39°52' W 075°12'0 0.0
2017-Dec-07 07:00N 39°52' W 075°12'0 0.0
2017-Dec-07 06:30N 39°52' W 075°12'0 0.0
2017-Dec-07 06:00N 39°52' W 075°12'0 0.1
2017-Dec-07 05:30N 39°52' W 075°12'0 0.0
2017-Dec-07 04:59N 39°52' W 075°12'0 0.3
2017-Dec-07 04:29N 39°52' W 075°13'0 0.1
2017-Dec-07 04:00N 39°52' W 075°13'0 0.0
2017-Dec-07 03:30N 39°52' W 075°13'0 0.0
2017-Dec-07 03:00N 39°52' W 075°13'0 0.1
2017-Dec-07 02:30N 39°52' W 075°13'0 0.0
2017-Dec-07 02:00N 39°52' W 075°13'0 0.0
2017-Dec-07 01:30N 39°52' W 075°13'0 0.0
2017-Dec-07 01:00N 39°52' W 075°13'0 0.0
2017-Dec-07 00:30N 39°52' W 075°13'0 0.3
2017-Dec-07 00:00N 39°52' W 075°12'0 0.1
2017-Dec-06 23:30N 39°52' W 075°12'0 0.0
2017-Dec-06 23:01N 39°52' W 075°12'0 0.1
2017-Dec-06 22:30N 39°52' W 075°12'0 0.1
2017-Dec-06 22:01N 39°52' W 075°12'0 0.0
2017-Dec-06 21:30N 39°52' W 075°12'0 0.0
2017-Dec-06 21:00N 39°52' W 075°12'  

Dump ship's entire track history